sensor_id;sensor_type;location;lat;lon;timestamp;P1;durP1;ratioP1;P2;durP2;ratioP2
3068;SDS011;1545;51.728;8.796;2022-10-16T00:01:04;10.57;;;5.00;;
3068;SDS011;1545;51.728;8.796;2022-10-16T00:03:38;8.57;;;4.70;;
3068;SDS011;1545;51.728;8.796;2022-10-16T00:06:04;8.77;;;5.07;;
3068;SDS011;1545;51.728;8.796;2022-10-16T00:08:30;8.27;;;5.03;;
3068;SDS011;1545;51.728;8.796;2022-10-16T00:11:00;6.57;;;4.80;;
3068;SDS011;1545;51.728;8.796;2022-10-16T00:13:28;16.20;;;6.00;;
3068;SDS011;1545;51.728;8.796;2022-10-16T00:15:57;14.93;;;5.30;;
3068;SDS011;1545;51.728;8.796;2022-10-16T00:18:24;12.30;;;5.40;;
3068;SDS011;1545;51.728;8.796;2022-10-16T00:20:50;12.10;;;6.13;;
3068;SDS011;1545;51.728;8.796;2022-10-16T00:23:16;12.13;;;5.67;;
3068;SDS011;1545;51.728;8.796;2022-10-16T00:25:42;12.43;;;6.00;;
3068;SDS011;1545;51.728;8.796;2022-10-16T00:28:07;12.57;;;5.60;;
3068;SDS011;1545;51.728;8.796;2022-10-16T00:30:33;11.37;;;5.80;;
3068;SDS011;1545;51.728;8.796;2022-10-16T00:32:59;13.70;;;5.80;;
3068;SDS011;1545;51.728;8.796;2022-10-16T00:35:24;15.07;;;5.70;;
3068;SDS011;1545;51.728;8.796;2022-10-16T00:37:50;12.63;;;6.60;;
3068;SDS011;1545;51.728;8.796;2022-10-16T00:40:15;11.37;;;5.70;;
3068;SDS011;1545;51.728;8.796;2022-10-16T00:42:41;11.07;;;6.03;;
3068;SDS011;1545;51.728;8.796;2022-10-16T00:45:08;16.53;;;6.30;;
3068;SDS011;1545;51.728;8.796;2022-10-16T00:47:36;14.97;;;6.20;;
3068;SDS011;1545;51.728;8.796;2022-10-16T00:50:11;11.00;;;6.63;;
3068;SDS011;1545;51.728;8.796;2022-10-16T00:52:44;9.63;;;5.83;;
3068;SDS011;1545;51.728;8.796;2022-10-16T00:55:13;11.97;;;5.93;;
3068;SDS011;1545;51.728;8.796;2022-10-16T00:57:39;13.37;;;6.30;;
3068;SDS011;1545;51.728;8.796;2022-10-16T01:00:07;16.23;;;6.53;;
3068;SDS011;1545;51.728;8.796;2022-10-16T01:02:34;10.37;;;6.23;;
3068;SDS011;1545;51.728;8.796;2022-10-16T01:05:00;20.27;;;6.77;;
3068;SDS011;1545;51.728;8.796;2022-10-16T01:07:30;13.87;;;6.73;;
3068;SDS011;1545;51.728;8.796;2022-10-16T01:10:10;12.03;;;6.67;;
3068;SDS011;1545;51.728;8.796;2022-10-16T01:12:54;16.70;;;6.57;;
3068;SDS011;1545;51.728;8.796;2022-10-16T01:15:30;25.57;;;7.27;;
3068;SDS011;1545;51.728;8.796;2022-10-16T01:18:10;14.00;;;6.23;;
3068;SDS011;1545;51.728;8.796;2022-10-16T01:20:50;14.27;;;7.13;;
3068;SDS011;1545;51.728;8.796;2022-10-16T01:26:27;12.77;;;6.13;;
3068;SDS011;1545;51.728;8.796;2022-10-16T01:32:05;15.00;;;6.67;;
3068;SDS011;1545;51.728;8.796;2022-10-16T01:34:42;8.17;;;5.77;;
3068;SDS011;1545;51.728;8.796;2022-10-16T01:37:18;11.93;;;6.63;;
3068;SDS011;1545;51.728;8.796;2022-10-16T01:39:57;8.60;;;5.57;;
3068;SDS011;1545;51.728;8.796;2022-10-16T01:42:27;18.50;;;7.07;;
3068;SDS011;1545;51.728;8.796;2022-10-16T01:44:59;13.57;;;6.60;;
3068;SDS011;1545;51.728;8.796;2022-10-16T01:47:25;16.27;;;6.10;;
3068;SDS011;1545;51.728;8.796;2022-10-16T01:49:52;13.23;;;6.30;;
3068;SDS011;1545;51.728;8.796;2022-10-16T01:52:21;12.47;;;6.50;;
3068;SDS011;1545;51.728;8.796;2022-10-16T01:54:51;15.63;;;6.90;;
3068;SDS011;1545;51.728;8.796;2022-10-16T01:57:20;9.43;;;6.40;;
3068;SDS011;1545;51.728;8.796;2022-10-16T01:59:49;11.00;;;6.20;;
3068;SDS011;1545;51.728;8.796;2022-10-16T02:02:18;9.30;;;5.87;;
3068;SDS011;1545;51.728;8.796;2022-10-16T02:04:48;14.03;;;6.00;;
3068;SDS011;1545;51.728;8.796;2022-10-16T02:07:18;13.00;;;5.73;;
3068;SDS011;1545;51.728;8.796;2022-10-16T02:09:44;12.00;;;5.87;;
3068;SDS011;1545;51.728;8.796;2022-10-16T02:12:12;12.43;;;5.80;;
3068;SDS011;1545;51.728;8.796;2022-10-16T02:14:43;12.17;;;5.90;;
3068;SDS011;1545;51.728;8.796;2022-10-16T02:17:13;12.43;;;5.53;;
3068;SDS011;1545;51.728;8.796;2022-10-16T02:19:41;7.73;;;5.50;;
3068;SDS011;1545;51.728;8.796;2022-10-16T02:22:09;8.90;;;5.10;;
3068;SDS011;1545;51.728;8.796;2022-10-16T02:24:51;10.87;;;5.40;;
3068;SDS011;1545;51.728;8.796;2022-10-16T02:27:26;7.87;;;4.90;;
3068;SDS011;1545;51.728;8.796;2022-10-16T02:30:04;11.93;;;4.90;;
3068;SDS011;1545;51.728;8.796;2022-10-16T02:32:36;7.20;;;4.20;;
3068;SDS011;1545;51.728;8.796;2022-10-16T02:35:04;8.10;;;4.37;;
3068;SDS011;1545;51.728;8.796;2022-10-16T02:37:32;9.97;;;4.73;;
3068;SDS011;1545;51.728;8.796;2022-10-16T02:39:58;9.30;;;4.30;;
3068;SDS011;1545;51.728;8.796;2022-10-16T02:42:27;14.77;;;4.50;;
3068;SDS011;1545;51.728;8.796;2022-10-16T02:44:54;8.83;;;5.03;;
3068;SDS011;1545;51.728;8.796;2022-10-16T02:47:20;6.43;;;4.10;;
3068;SDS011;1545;51.728;8.796;2022-10-16T02:49:45;10.57;;;4.73;;
3068;SDS011;1545;51.728;8.796;2022-10-16T02:52:11;9.40;;;4.43;;
3068;SDS011;1545;51.728;8.796;2022-10-16T02:54:36;6.03;;;3.70;;
3068;SDS011;1545;51.728;8.796;2022-10-16T02:57:02;9.93;;;4.10;;
3068;SDS011;1545;51.728;8.796;2022-10-16T02:59:28;5.30;;;3.63;;
3068;SDS011;1545;51.728;8.796;2022-10-16T03:01:53;7.67;;;4.10;;
3068;SDS011;1545;51.728;8.796;2022-10-16T03:04:18;6.63;;;3.67;;
3068;SDS011;1545;51.728;8.796;2022-10-16T03:06:44;8.93;;;3.90;;
3068;SDS011;1545;51.728;8.796;2022-10-16T03:09:09;8.00;;;4.20;;
3068;SDS011;1545;51.728;8.796;2022-10-16T03:11:35;9.47;;;4.00;;
3068;SDS011;1545;51.728;8.796;2022-10-16T03:14:00;11.07;;;4.00;;
3068;SDS011;1545;51.728;8.796;2022-10-16T03:16:26;9.57;;;3.77;;
3068;SDS011;1545;51.728;8.796;2022-10-16T03:18:51;10.17;;;3.93;;
3068;SDS011;1545;51.728;8.796;2022-10-16T03:21:17;3.77;;;3.30;;
3068;SDS011;1545;51.728;8.796;2022-10-16T03:23:43;8.83;;;3.60;;
3068;SDS011;1545;51.728;8.796;2022-10-16T03:26:08;9.43;;;3.80;;
3068;SDS011;1545;51.728;8.796;2022-10-16T03:28:34;11.03;;;4.40;;
3068;SDS011;1545;51.728;8.796;2022-10-16T03:30:59;9.57;;;3.83;;
3068;SDS011;1545;51.728;8.796;2022-10-16T03:33:25;7.40;;;3.70;;
3068;SDS011;1545;51.728;8.796;2022-10-16T03:35:51;8.03;;;3.50;;
3068;SDS011;1545;51.728;8.796;2022-10-16T03:38:18;7.93;;;3.90;;
3068;SDS011;1545;51.728;8.796;2022-10-16T03:40:43;5.40;;;3.60;;
3068;SDS011;1545;51.728;8.796;2022-10-16T03:43:09;10.47;;;4.03;;
3068;SDS011;1545;51.728;8.796;2022-10-16T03:45:34;19.07;;;4.20;;
3068;SDS011;1545;51.728;8.796;2022-10-16T03:48:00;11.67;;;3.90;;
3068;SDS011;1545;51.728;8.796;2022-10-16T03:50:27;4.50;;;3.47;;
3068;SDS011;1545;51.728;8.796;2022-10-16T03:52:53;6.97;;;4.00;;
3068;SDS011;1545;51.728;8.796;2022-10-16T03:55:18;7.33;;;3.80;;
3068;SDS011;1545;51.728;8.796;2022-10-16T03:57:44;4.70;;;3.77;;
3068;SDS011;1545;51.728;8.796;2022-10-16T04:00:09;5.50;;;3.80;;
3068;SDS011;1545;51.728;8.796;2022-10-16T04:02:36;8.23;;;4.13;;
3068;SDS011;1545;51.728;8.796;2022-10-16T04:05:01;4.60;;;3.63;;
3068;SDS011;1545;51.728;8.796;2022-10-16T04:07:27;3.43;;;3.30;;
3068;SDS011;1545;51.728;8.796;2022-10-16T04:09:53;3.43;;;3.20;;
3068;SDS011;1545;51.728;8.796;2022-10-16T04:12:19;4.10;;;3.30;;
3068;SDS011;1545;51.728;8.796;2022-10-16T04:14:44;7.53;;;3.50;;
3068;SDS011;1545;51.728;8.796;2022-10-16T04:17:10;8.73;;;3.70;;
3068;SDS011;1545;51.728;8.796;2022-10-16T04:19:35;4.67;;;3.40;;
3068;SDS011;1545;51.728;8.796;2022-10-16T04:22:02;5.40;;;3.50;;
3068;SDS011;1545;51.728;8.796;2022-10-16T04:24:27;4.30;;;3.30;;
3068;SDS011;1545;51.728;8.796;2022-10-16T04:26:53;6.53;;;3.47;;
3068;SDS011;1545;51.728;8.796;2022-10-16T04:29:18;6.83;;;3.80;;
3068;SDS011;1545;51.728;8.796;2022-10-16T04:31:44;6.77;;;3.50;;
3068;SDS011;1545;51.728;8.796;2022-10-16T04:34:09;5.17;;;3.00;;
3068;SDS011;1545;51.728;8.796;2022-10-16T04:36:35;3.50;;;2.70;;
3068;SDS011;1545;51.728;8.796;2022-10-16T04:39:00;6.80;;;3.10;;
3068;SDS011;1545;51.728;8.796;2022-10-16T04:41:26;6.57;;;3.20;;
3068;SDS011;1545;51.728;8.796;2022-10-16T04:43:51;5.13;;;3.00;;
3068;SDS011;1545;51.728;8.796;2022-10-16T04:46:17;4.87;;;3.10;;
3068;SDS011;1545;51.728;8.796;2022-10-16T04:48:43;8.30;;;3.00;;
3068;SDS011;1545;51.728;8.796;2022-10-16T04:51:08;4.40;;;2.80;;
3068;SDS011;1545;51.728;8.796;2022-10-16T04:53:34;3.83;;;2.90;;
3068;SDS011;1545;51.728;8.796;2022-10-16T04:55:59;4.27;;;2.80;;
3068;SDS011;1545;51.728;8.796;2022-10-16T04:58:25;6.83;;;3.40;;
3068;SDS011;1545;51.728;8.796;2022-10-16T05:00:50;4.30;;;2.90;;
3068;SDS011;1545;51.728;8.796;2022-10-16T05:03:16;4.60;;;2.70;;
3068;SDS011;1545;51.728;8.796;2022-10-16T05:05:42;6.53;;;2.97;;
3068;SDS011;1545;51.728;8.796;2022-10-16T05:08:09;7.53;;;3.27;;
3068;SDS011;1545;51.728;8.796;2022-10-16T05:10:35;3.50;;;3.07;;
3068;SDS011;1545;51.728;8.796;2022-10-16T05:13:00;8.60;;;2.83;;
3068;SDS011;1545;51.728;8.796;2022-10-16T05:15:26;4.47;;;3.27;;
3068;SDS011;1545;51.728;8.796;2022-10-16T05:17:53;5.13;;;3.13;;
3068;SDS011;1545;51.728;8.796;2022-10-16T05:20:18;4.83;;;2.87;;
3068;SDS011;1545;51.728;8.796;2022-10-16T05:22:44;3.87;;;2.80;;
3068;SDS011;1545;51.728;8.796;2022-10-16T05:25:10;9.83;;;2.90;;
3068;SDS011;1545;51.728;8.796;2022-10-16T05:27:35;4.73;;;2.90;;
3068;SDS011;1545;51.728;8.796;2022-10-16T05:30:01;4.60;;;2.70;;
3068;SDS011;1545;51.728;8.796;2022-10-16T05:32:26;11.93;;;3.30;;
3068;SDS011;1545;51.728;8.796;2022-10-16T05:34:52;5.83;;;3.00;;
3068;SDS011;1545;51.728;8.796;2022-10-16T05:37:17;8.33;;;3.17;;
3068;SDS011;1545;51.728;8.796;2022-10-16T05:39:43;4.77;;;3.17;;
3068;SDS011;1545;51.728;8.796;2022-10-16T05:42:08;8.23;;;3.53;;
3068;SDS011;1545;51.728;8.796;2022-10-16T05:44:34;3.60;;;3.07;;
3068;SDS011;1545;51.728;8.796;2022-10-16T05:46:59;8.47;;;3.47;;
3068;SDS011;1545;51.728;8.796;2022-10-16T05:49:25;7.80;;;2.87;;
3068;SDS011;1545;51.728;8.796;2022-10-16T05:51:51;9.57;;;3.20;;
3068;SDS011;1545;51.728;8.796;2022-10-16T05:54:16;5.97;;;2.73;;
3068;SDS011;1545;51.728;8.796;2022-10-16T05:56:42;3.87;;;2.90;;
3068;SDS011;1545;51.728;8.796;2022-10-16T05:59:07;6.80;;;2.57;;
3068;SDS011;1545;51.728;8.796;2022-10-16T06:01:33;7.07;;;3.43;;
3068;SDS011;1545;51.728;8.796;2022-10-16T06:04:00;9.87;;;2.60;;
3068;SDS011;1545;51.728;8.796;2022-10-16T06:06:28;6.47;;;2.77;;
3068;SDS011;1545;51.728;8.796;2022-10-16T06:08:55;3.30;;;2.70;;
3068;SDS011;1545;51.728;8.796;2022-10-16T06:11:25;5.37;;;2.50;;
3068;SDS011;1545;51.728;8.796;2022-10-16T06:13:54;5.10;;;2.50;;
3068;SDS011;1545;51.728;8.796;2022-10-16T06:16:21;3.10;;;2.77;;
3068;SDS011;1545;51.728;8.796;2022-10-16T06:18:47;5.47;;;2.63;;
3068;SDS011;1545;51.728;8.796;2022-10-16T06:21:19;2.57;;;2.33;;
3068;SDS011;1545;51.728;8.796;2022-10-16T06:23:46;7.17;;;2.87;;
3068;SDS011;1545;51.728;8.796;2022-10-16T06:26:13;4.37;;;2.77;;
3068;SDS011;1545;51.728;8.796;2022-10-16T06:28:40;2.93;;;2.30;;
3068;SDS011;1545;51.728;8.796;2022-10-16T06:31:07;3.07;;;2.53;;
3068;SDS011;1545;51.728;8.796;2022-10-16T06:33:34;3.10;;;2.67;;
3068;SDS011;1545;51.728;8.796;2022-10-16T06:36:11;10.90;;;2.37;;
3068;SDS011;1545;51.728;8.796;2022-10-16T06:38:38;3.23;;;2.40;;
3068;SDS011;1545;51.728;8.796;2022-10-16T06:41:04;3.60;;;2.30;;
3068;SDS011;1545;51.728;8.796;2022-10-16T06:43:30;5.00;;;2.63;;
3068;SDS011;1545;51.728;8.796;2022-10-16T06:46:02;4.03;;;2.80;;
3068;SDS011;1545;51.728;8.796;2022-10-16T06:48:28;2.53;;;2.33;;
3068;SDS011;1545;51.728;8.796;2022-10-16T06:50:55;3.00;;;2.37;;
3068;SDS011;1545;51.728;8.796;2022-10-16T06:53:21;4.73;;;2.33;;
3068;SDS011;1545;51.728;8.796;2022-10-16T06:55:47;4.00;;;2.60;;
3068;SDS011;1545;51.728;8.796;2022-10-16T06:58:12;10.33;;;3.77;;
3068;SDS011;1545;51.728;8.796;2022-10-16T07:00:38;5.83;;;2.87;;
3068;SDS011;1545;51.728;8.796;2022-10-16T07:03:03;7.70;;;2.50;;
3068;SDS011;1545;51.728;8.796;2022-10-16T07:05:29;7.90;;;2.40;;
3068;SDS011;1545;51.728;8.796;2022-10-16T07:07:54;5.87;;;2.50;;
3068;SDS011;1545;51.728;8.796;2022-10-16T07:10:20;5.03;;;2.80;;
3068;SDS011;1545;51.728;8.796;2022-10-16T07:12:48;2.67;;;2.50;;
3068;SDS011;1545;51.728;8.796;2022-10-16T07:15:14;4.90;;;2.80;;
3068;SDS011;1545;51.728;8.796;2022-10-16T07:17:40;7.17;;;2.57;;
3068;SDS011;1545;51.728;8.796;2022-10-16T07:20:05;5.07;;;2.60;;
3068;SDS011;1545;51.728;8.796;2022-10-16T07:22:32;3.37;;;2.60;;
3068;SDS011;1545;51.728;8.796;2022-10-16T07:24:57;4.80;;;2.80;;
3068;SDS011;1545;51.728;8.796;2022-10-16T07:27:23;4.77;;;2.60;;
3068;SDS011;1545;51.728;8.796;2022-10-16T07:29:49;3.77;;;2.90;;
3068;SDS011;1545;51.728;8.796;2022-10-16T07:32:14;3.40;;;2.47;;
3068;SDS011;1545;51.728;8.796;2022-10-16T07:34:40;4.90;;;2.70;;
3068;SDS011;1545;51.728;8.796;2022-10-16T07:37:07;2.83;;;2.40;;
3068;SDS011;1545;51.728;8.796;2022-10-16T07:39:32;6.03;;;2.23;;
3068;SDS011;1545;51.728;8.796;2022-10-16T07:41:58;3.93;;;2.23;;
3068;SDS011;1545;51.728;8.796;2022-10-16T07:44:24;9.07;;;2.60;;
3068;SDS011;1545;51.728;8.796;2022-10-16T07:46:49;4.17;;;2.67;;
3068;SDS011;1545;51.728;8.796;2022-10-16T07:49:15;5.27;;;2.53;;
3068;SDS011;1545;51.728;8.796;2022-10-16T07:51:40;4.80;;;2.40;;
3068;SDS011;1545;51.728;8.796;2022-10-16T07:54:07;8.13;;;2.20;;
3068;SDS011;1545;51.728;8.796;2022-10-16T07:56:33;5.83;;;2.40;;
3068;SDS011;1545;51.728;8.796;2022-10-16T07:58:59;5.40;;;2.63;;
3068;SDS011;1545;51.728;8.796;2022-10-16T08:01:24;8.77;;;2.33;;
3068;SDS011;1545;51.728;8.796;2022-10-16T08:03:50;5.50;;;2.60;;
3068;SDS011;1545;51.728;8.796;2022-10-16T08:06:17;2.63;;;2.30;;
3068;SDS011;1545;51.728;8.796;2022-10-16T08:08:43;4.97;;;2.23;;
3068;SDS011;1545;51.728;8.796;2022-10-16T08:11:09;4.37;;;2.40;;
3068;SDS011;1545;51.728;8.796;2022-10-16T08:13:35;3.93;;;2.00;;
3068;SDS011;1545;51.728;8.796;2022-10-16T08:16:00;3.90;;;1.80;;
3068;SDS011;1545;51.728;8.796;2022-10-16T08:18:26;5.63;;;2.30;;
3068;SDS011;1545;51.728;8.796;2022-10-16T08:20:56;4.27;;;2.30;;
3068;SDS011;1545;51.728;8.796;2022-10-16T08:23:23;3.90;;;2.43;;
3068;SDS011;1545;51.728;8.796;2022-10-16T08:25:50;2.60;;;2.10;;
3068;SDS011;1545;51.728;8.796;2022-10-16T08:28:16;4.10;;;2.20;;
3068;SDS011;1545;51.728;8.796;2022-10-16T08:30:42;2.40;;;2.23;;
3068;SDS011;1545;51.728;8.796;2022-10-16T08:33:08;6.13;;;2.50;;
3068;SDS011;1545;51.728;8.796;2022-10-16T08:35:33;3.17;;;2.20;;
3068;SDS011;1545;51.728;8.796;2022-10-16T08:37:59;3.23;;;2.27;;
3068;SDS011;1545;51.728;8.796;2022-10-16T08:40:25;7.50;;;2.40;;
3068;SDS011;1545;51.728;8.796;2022-10-16T08:48:37;2.40;;;2.20;;
3068;SDS011;1545;51.728;8.796;2022-10-16T08:51:10;2.90;;;2.40;;
3068;SDS011;1545;51.728;8.796;2022-10-16T08:56:38;4.33;;;2.30;;
3068;SDS011;1545;51.728;8.796;2022-10-16T08:59:04;2.50;;;2.13;;
3068;SDS011;1545;51.728;8.796;2022-10-16T09:01:38;5.03;;;2.27;;
3068;SDS011;1545;51.728;8.796;2022-10-16T09:04:30;5.43;;;2.20;;
3068;SDS011;1545;51.728;8.796;2022-10-16T09:09:49;3.47;;;2.30;;
3068;SDS011;1545;51.728;8.796;2022-10-16T09:12:31;2.43;;;2.10;;
3068;SDS011;1545;51.728;8.796;2022-10-16T09:23:22;3.30;;;2.10;;
3068;SDS011;1545;51.728;8.796;2022-10-16T09:25:54;5.93;;;2.00;;
3068;SDS011;1545;51.728;8.796;2022-10-16T09:28:21;3.10;;;1.97;;
3068;SDS011;1545;51.728;8.796;2022-10-16T09:30:47;4.33;;;2.20;;
3068;SDS011;1545;51.728;8.796;2022-10-16T09:33:16;4.93;;;2.47;;
3068;SDS011;1545;51.728;8.796;2022-10-16T09:35:44;3.27;;;2.33;;
3068;SDS011;1545;51.728;8.796;2022-10-16T09:38:28;9.93;;;2.80;;
3068;SDS011;1545;51.728;8.796;2022-10-16T09:41:02;4.67;;;2.37;;
3068;SDS011;1545;51.728;8.796;2022-10-16T09:43:42;6.23;;;2.60;;
3068;SDS011;1545;51.728;8.796;2022-10-16T09:46:33;3.17;;;2.50;;
3068;SDS011;1545;51.728;8.796;2022-10-16T09:49:02;8.83;;;2.90;;
3068;SDS011;1545;51.728;8.796;2022-10-16T09:51:34;7.43;;;3.00;;
3068;SDS011;1545;51.728;8.796;2022-10-16T09:54:10;7.00;;;3.00;;
3068;SDS011;1545;51.728;8.796;2022-10-16T09:56:42;6.63;;;2.80;;
3068;SDS011;1545;51.728;8.796;2022-10-16T09:59:12;5.53;;;2.93;;
3068;SDS011;1545;51.728;8.796;2022-10-16T10:01:43;4.90;;;3.00;;
3068;SDS011;1545;51.728;8.796;2022-10-16T10:04:11;4.60;;;2.90;;
3068;SDS011;1545;51.728;8.796;2022-10-16T10:06:40;6.13;;;3.00;;
3068;SDS011;1545;51.728;8.796;2022-10-16T10:09:29;4.30;;;2.90;;
3068;SDS011;1545;51.728;8.796;2022-10-16T10:17:01;6.70;;;2.50;;
3068;SDS011;1545;51.728;8.796;2022-10-16T10:22:41;5.07;;;2.70;;
3068;SDS011;1545;51.728;8.796;2022-10-16T10:44:01;12.73;;;2.53;;
3068;SDS011;1545;51.728;8.796;2022-10-16T10:49:51;3.77;;;2.30;;
3068;SDS011;1545;51.728;8.796;2022-10-16T10:57:53;4.93;;;2.47;;
3068;SDS011;1545;51.728;8.796;2022-10-16T11:01:08;4.27;;;2.03;;
3068;SDS011;1545;51.728;8.796;2022-10-16T11:03:24;5.60;;;2.50;;
3068;SDS011;1545;51.728;8.796;2022-10-16T11:06:22;2.53;;;2.17;;
3068;SDS011;1545;51.728;8.796;2022-10-16T11:11:49;8.33;;;2.60;;
3068;SDS011;1545;51.728;8.796;2022-10-16T11:14:29;8.63;;;2.23;;
3068;SDS011;1545;51.728;8.796;2022-10-16T11:17:46;3.93;;;1.70;;
3068;SDS011;1545;51.728;8.796;2022-10-16T11:19:54;2.97;;;1.83;;
3068;SDS011;1545;51.728;8.796;2022-10-16T11:22:34;7.03;;;1.90;;
3068;SDS011;1545;51.728;8.796;2022-10-16T11:30:28;7.53;;;2.33;;
3068;SDS011;1545;51.728;8.796;2022-10-16T11:41:31;6.30;;;1.87;;
3068;SDS011;1545;51.728;8.796;2022-10-16T11:47:19;2.20;;;1.50;;
3068;SDS011;1545;51.728;8.796;2022-10-16T11:52:52;4.17;;;1.70;;
3068;SDS011;1545;51.728;8.796;2022-10-16T11:55:43;2.27;;;1.33;;
3068;SDS011;1545;51.728;8.796;2022-10-16T12:01:30;5.27;;;1.30;;
3068;SDS011;1545;51.728;8.796;2022-10-16T12:03:51;8.03;;;2.00;;
3068;SDS011;1545;51.728;8.796;2022-10-16T12:09:27;3.40;;;1.63;;
3068;SDS011;1545;51.728;8.796;2022-10-16T12:11:57;2.93;;;1.60;;
3068;SDS011;1545;51.728;8.796;2022-10-16T12:17:00;6.20;;;1.77;;
3068;SDS011;1545;51.728;8.796;2022-10-16T12:19:30;3.50;;;1.80;;
3068;SDS011;1545;51.728;8.796;2022-10-16T12:21:58;7.70;;;1.80;;
3068;SDS011;1545;51.728;8.796;2022-10-16T12:24:38;2.27;;;1.60;;
3068;SDS011;1545;51.728;8.796;2022-10-16T12:27:17;4.17;;;1.57;;
3068;SDS011;1545;51.728;8.796;2022-10-16T12:30:00;4.07;;;1.77;;
3068;SDS011;1545;51.728;8.796;2022-10-16T12:32:34;2.10;;;1.50;;
3068;SDS011;1545;51.728;8.796;2022-10-16T12:35:01;2.97;;;1.70;;
3068;SDS011;1545;51.728;8.796;2022-10-16T12:37:33;1.60;;;1.53;;
3068;SDS011;1545;51.728;8.796;2022-10-16T12:40:11;2.23;;;1.60;;
3068;SDS011;1545;51.728;8.796;2022-10-16T12:42:48;3.17;;;1.60;;
3068;SDS011;1545;51.728;8.796;2022-10-16T12:48:02;5.87;;;1.77;;
3068;SDS011;1545;51.728;8.796;2022-10-16T12:50:42;3.23;;;1.63;;
3068;SDS011;1545;51.728;8.796;2022-10-16T12:53:19;5.37;;;1.70;;
3068;SDS011;1545;51.728;8.796;2022-10-16T12:58:52;10.47;;;2.10;;
3068;SDS011;1545;51.728;8.796;2022-10-16T13:07:17;1.67;;;1.60;;
3068;SDS011;1545;51.728;8.796;2022-10-16T13:10:06;2.03;;;1.47;;
3068;SDS011;1545;51.728;8.796;2022-10-16T13:21:00;4.70;;;1.73;;
3068;SDS011;1545;51.728;8.796;2022-10-16T13:29:03;3.27;;;1.37;;
3068;SDS011;1545;51.728;8.796;2022-10-16T13:31:29;5.80;;;1.60;;
3068;SDS011;1545;51.728;8.796;2022-10-16T13:33:56;2.80;;;1.70;;
3068;SDS011;1545;51.728;8.796;2022-10-16T13:36:34;3.73;;;1.70;;
3068;SDS011;1545;51.728;8.796;2022-10-16T13:39:12;2.63;;;1.63;;
3068;SDS011;1545;51.728;8.796;2022-10-16T13:41:39;6.73;;;1.87;;
3068;SDS011;1545;51.728;8.796;2022-10-16T13:44:11;4.23;;;1.70;;
3068;SDS011;1545;51.728;8.796;2022-10-16T13:46:40;3.33;;;1.57;;
3068;SDS011;1545;51.728;8.796;2022-10-16T13:49:11;3.33;;;1.70;;
3068;SDS011;1545;51.728;8.796;2022-10-16T13:51:53;10.63;;;2.00;;
3068;SDS011;1545;51.728;8.796;2022-10-16T13:54:20;2.53;;;1.70;;
3068;SDS011;1545;51.728;8.796;2022-10-16T13:56:45;3.57;;;1.77;;
3068;SDS011;1545;51.728;8.796;2022-10-16T14:01:53;3.50;;;1.83;;
3068;SDS011;1545;51.728;8.796;2022-10-16T14:04:21;3.13;;;1.67;;
3068;SDS011;1545;51.728;8.796;2022-10-16T14:06:49;3.70;;;1.70;;
3068;SDS011;1545;51.728;8.796;2022-10-16T14:11:51;7.17;;;2.10;;
3068;SDS011;1545;51.728;8.796;2022-10-16T14:14:20;5.83;;;2.03;;
3068;SDS011;1545;51.728;8.796;2022-10-16T14:16:47;4.37;;;1.73;;
3068;SDS011;1545;51.728;8.796;2022-10-16T14:19:23;3.23;;;1.80;;
3068;SDS011;1545;51.728;8.796;2022-10-16T14:21:51;6.87;;;1.70;;
3068;SDS011;1545;51.728;8.796;2022-10-16T14:26:56;4.30;;;1.60;;
3068;SDS011;1545;51.728;8.796;2022-10-16T14:29:23;5.47;;;2.03;;
3068;SDS011;1545;51.728;8.796;2022-10-16T14:31:57;8.37;;;1.70;;
3068;SDS011;1545;51.728;8.796;2022-10-16T14:34:34;3.33;;;1.47;;
3068;SDS011;1545;51.728;8.796;2022-10-16T14:37:35;2.20;;;1.63;;
3068;SDS011;1545;51.728;8.796;2022-10-16T14:39:55;8.73;;;1.77;;
3068;SDS011;1545;51.728;8.796;2022-10-16T14:42:23;2.50;;;1.73;;
3068;SDS011;1545;51.728;8.796;2022-10-16T14:44:50;2.73;;;1.60;;
3068;SDS011;1545;51.728;8.796;2022-10-16T14:47:22;2.60;;;1.70;;
3068;SDS011;1545;51.728;8.796;2022-10-16T14:49:51;7.23;;;2.23;;
3068;SDS011;1545;51.728;8.796;2022-10-16T14:52:23;7.80;;;1.60;;
3068;SDS011;1545;51.728;8.796;2022-10-16T14:54:49;6.93;;;2.07;;
3068;SDS011;1545;51.728;8.796;2022-10-16T14:57:16;4.80;;;1.90;;
3068;SDS011;1545;51.728;8.796;2022-10-16T14:59:43;7.20;;;1.80;;
3068;SDS011;1545;51.728;8.796;2022-10-16T15:04:53;3.87;;;2.03;;
3068;SDS011;1545;51.728;8.796;2022-10-16T15:07:18;5.97;;;2.03;;
3068;SDS011;1545;51.728;8.796;2022-10-16T15:09:44;6.13;;;2.13;;
3068;SDS011;1545;51.728;8.796;2022-10-16T15:12:09;3.63;;;1.60;;
3068;SDS011;1545;51.728;8.796;2022-10-16T15:14:35;3.73;;;1.63;;
3068;SDS011;1545;51.728;8.796;2022-10-16T15:17:01;3.93;;;1.93;;
3068;SDS011;1545;51.728;8.796;2022-10-16T15:19:27;3.70;;;2.03;;
3068;SDS011;1545;51.728;8.796;2022-10-16T15:21:52;7.03;;;2.50;;
3068;SDS011;1545;51.728;8.796;2022-10-16T15:24:18;6.53;;;2.20;;
3068;SDS011;1545;51.728;8.796;2022-10-16T15:26:43;4.93;;;2.37;;
3068;SDS011;1545;51.728;8.796;2022-10-16T15:29:11;2.23;;;1.93;;
3068;SDS011;1545;51.728;8.796;2022-10-16T15:31:37;2.83;;;1.83;;
3068;SDS011;1545;51.728;8.796;2022-10-16T15:34:03;2.70;;;1.80;;
3068;SDS011;1545;51.728;8.796;2022-10-16T15:36:34;4.87;;;1.80;;
3068;SDS011;1545;51.728;8.796;2022-10-16T15:39:15;7.30;;;1.97;;
3068;SDS011;1545;51.728;8.796;2022-10-16T15:41:42;5.50;;;2.13;;
3068;SDS011;1545;51.728;8.796;2022-10-16T15:44:09;4.53;;;2.30;;
3068;SDS011;1545;51.728;8.796;2022-10-16T15:46:35;4.93;;;1.93;;
3068;SDS011;1545;51.728;8.796;2022-10-16T15:49:02;3.50;;;1.93;;
3068;SDS011;1545;51.728;8.796;2022-10-16T15:51:27;2.23;;;1.73;;
3068;SDS011;1545;51.728;8.796;2022-10-16T15:53:55;5.83;;;2.13;;
3068;SDS011;1545;51.728;8.796;2022-10-16T15:56:22;6.90;;;2.13;;
3068;SDS011;1545;51.728;8.796;2022-10-16T15:58:50;2.87;;;2.30;;
3068;SDS011;1545;51.728;8.796;2022-10-16T16:01:16;10.47;;;2.30;;
3068;SDS011;1545;51.728;8.796;2022-10-16T16:03:42;6.30;;;2.53;;
3068;SDS011;1545;51.728;8.796;2022-10-16T16:06:10;7.60;;;2.30;;
3068;SDS011;1545;51.728;8.796;2022-10-16T16:08:37;3.83;;;2.67;;
3068;SDS011;1545;51.728;8.796;2022-10-16T16:11:04;9.00;;;2.97;;
3068;SDS011;1545;51.728;8.796;2022-10-16T16:13:31;5.87;;;2.30;;
3068;SDS011;1545;51.728;8.796;2022-10-16T16:15:57;7.30;;;2.60;;
3068;SDS011;1545;51.728;8.796;2022-10-16T16:18:23;8.33;;;2.70;;
3068;SDS011;1545;51.728;8.796;2022-10-16T16:20:49;9.40;;;2.83;;
3068;SDS011;1545;51.728;8.796;2022-10-16T16:23:15;10.10;;;2.70;;
3068;SDS011;1545;51.728;8.796;2022-10-16T16:25:41;6.70;;;2.87;;
3068;SDS011;1545;51.728;8.796;2022-10-16T16:28:06;7.43;;;2.97;;
3068;SDS011;1545;51.728;8.796;2022-10-16T16:30:35;5.80;;;3.53;;
3068;SDS011;1545;51.728;8.796;2022-10-16T16:33:01;9.00;;;3.53;;
3068;SDS011;1545;51.728;8.796;2022-10-16T16:35:26;5.13;;;3.00;;
3068;SDS011;1545;51.728;8.796;2022-10-16T16:37:52;8.17;;;3.47;;
3068;SDS011;1545;51.728;8.796;2022-10-16T16:40:17;7.30;;;2.70;;
3068;SDS011;1545;51.728;8.796;2022-10-16T16:42:43;6.77;;;2.60;;
3068;SDS011;1545;51.728;8.796;2022-10-16T16:45:08;3.17;;;2.80;;
3068;SDS011;1545;51.728;8.796;2022-10-16T16:47:34;10.00;;;3.30;;
3068;SDS011;1545;51.728;8.796;2022-10-16T16:50:00;12.47;;;3.70;;
3068;SDS011;1545;51.728;8.796;2022-10-16T16:52:29;7.57;;;3.27;;
3068;SDS011;1545;51.728;8.796;2022-10-16T16:54:55;6.30;;;2.90;;
3068;SDS011;1545;51.728;8.796;2022-10-16T16:57:20;8.63;;;2.70;;
3068;SDS011;1545;51.728;8.796;2022-10-16T16:59:46;6.93;;;2.90;;
3068;SDS011;1545;51.728;8.796;2022-10-16T17:02:11;9.30;;;2.80;;
3068;SDS011;1545;51.728;8.796;2022-10-16T17:04:37;5.80;;;2.93;;
3068;SDS011;1545;51.728;8.796;2022-10-16T17:07:03;7.30;;;2.63;;
3068;SDS011;1545;51.728;8.796;2022-10-16T17:09:28;13.93;;;3.47;;
3068;SDS011;1545;51.728;8.796;2022-10-16T17:11:56;6.03;;;3.10;;
3068;SDS011;1545;51.728;8.796;2022-10-16T17:14:21;12.37;;;3.87;;
3068;SDS011;1545;51.728;8.796;2022-10-16T17:16:47;6.73;;;3.10;;
3068;SDS011;1545;51.728;8.796;2022-10-16T17:19:14;6.10;;;3.17;;
3068;SDS011;1545;51.728;8.796;2022-10-16T17:21:42;5.80;;;3.10;;
3068;SDS011;1545;51.728;8.796;2022-10-16T17:24:08;11.17;;;3.50;;
3068;SDS011;1545;51.728;8.796;2022-10-16T17:26:34;5.57;;;3.20;;
3068;SDS011;1545;51.728;8.796;2022-10-16T17:29:02;12.40;;;2.97;;
3068;SDS011;1545;51.728;8.796;2022-10-16T17:31:30;7.30;;;2.60;;